createdAt,value
2022-12-28T00:01:46.347Z,4.30
2022-12-28T00:04:15.136Z,4.07
2022-12-28T00:06:41.873Z,5.40
2022-12-28T00:09:10.831Z,5.72
2022-12-28T00:11:37.952Z,6.10
2022-12-28T00:14:04.977Z,6.03
2022-12-28T00:16:36.975Z,4.67
2022-12-28T00:19:11.596Z,5.20
2022-12-28T00:21:38.545Z,4.93
2022-12-28T00:24:05.808Z,4.53
2022-12-28T00:26:34.808Z,4.20
2022-12-28T00:29:05.164Z,4.60
2022-12-28T00:31:33.955Z,5.20
2022-12-28T00:34:01.789Z,5.23
2022-12-28T00:37:08.482Z,4.47
2022-12-28T00:39:15.574Z,4.45
2022-12-28T00:41:42.307Z,4.50
2022-12-28T00:44:09.194Z,5.10
2022-12-28T00:46:37.295Z,7.20
2022-12-28T00:49:04.164Z,5.23
2022-12-28T00:51:30.893Z,5.90
2022-12-28T00:53:57.830Z,5.43
2022-12-28T00:56:24.582Z,6.27
2022-12-28T00:58:57.382Z,6.18
2022-12-28T01:01:25.741Z,7.43
2022-12-28T01:03:54.806Z,7.70
2022-12-28T01:06:21.640Z,7.40
2022-12-28T01:08:48.367Z,8.20
2022-12-28T01:11:24.023Z,8.13
2022-12-28T01:13:52.546Z,6.45
2022-12-28T01:16:25.153Z,7.57
2022-12-28T01:18:54.327Z,7.72
2022-12-28T01:21:23.797Z,9.10
2022-12-28T01:23:55.515Z,9.13
2022-12-28T01:26:22.954Z,8.75
2022-12-28T01:28:49.857Z,8.70
2022-12-28T01:31:18.856Z,8.07
2022-12-28T01:33:46.173Z,7.50
2022-12-28T01:36:17.489Z,6.70
2022-12-28T01:38:45.496Z,5.90
2022-12-28T01:41:18.153Z,6.22
2022-12-28T01:43:52.201Z,7.18
2022-12-28T01:46:28.213Z,7.40
2022-12-28T01:49:11.329Z,8.13
2022-12-28T01:51:48.436Z,8.07
2022-12-28T01:54:16.009Z,7.55
2022-12-28T01:56:44.155Z,8.75
2022-12-28T01:59:12.144Z,8.10
2022-12-28T02:01:39.395Z,9.20
2022-12-28T02:04:06.415Z,8.60
2022-12-28T02:06:33.203Z,10.10
2022-12-28T02:09:11.887Z,9.77
2022-12-28T02:11:38.635Z,9.05
2022-12-28T02:14:06.962Z,8.35
2022-12-28T02:16:33.898Z,7.85
2022-12-28T02:19:00.891Z,8.95
2022-12-28T02:21:42.945Z,7.93
2022-12-28T02:24:09.635Z,8.82
2022-12-28T02:26:50.633Z,8.10
2022-12-28T02:29:25.991Z,8.55
2022-12-28T02:32:06.335Z,7.55
2022-12-28T02:34:57.316Z,7.75
2022-12-28T02:37:34.561Z,7.95
2022-12-28T02:40:11.433Z,7.80
2022-12-28T02:42:40.092Z,8.15
2022-12-28T02:45:27.788Z,7.25
2022-12-28T02:48:13.015Z,7.82
2022-12-28T02:51:00.521Z,7.63
2022-12-28T02:53:47.252Z,8.07
2022-12-28T02:56:32.555Z,7.65
2022-12-28T02:59:23.491Z,7.65
2022-12-28T03:02:18.979Z,7.15
2022-12-28T03:05:18.655Z,6.53
2022-12-28T03:08:20.217Z,6.28
2022-12-28T03:10:59.627Z,6.82
2022-12-28T03:13:43.779Z,6.22
2022-12-28T03:16:31.893Z,6.43
2022-12-28T03:19:27.033Z,6.78
2022-12-28T03:22:15.265Z,6.53
2022-12-28T03:25:04.182Z,6.05
2022-12-28T03:27:52.632Z,6.03
2022-12-28T03:30:40.024Z,6.35
2022-12-28T03:33:09.013Z,6.10
2022-12-28T03:35:50.272Z,6.15
2022-12-28T03:38:28.651Z,6.00
2022-12-28T03:41:05.896Z,6.47
2022-12-28T03:43:43.500Z,6.40
2022-12-28T03:46:22.149Z,5.80
2022-12-28T03:48:50.088Z,5.50
2022-12-28T03:51:22.404Z,5.85
2022-12-28T03:53:49.608Z,6.00
2022-12-28T03:56:18.253Z,6.00
2022-12-28T03:58:45.620Z,5.50
2022-12-28T04:01:12.583Z,5.63
2022-12-28T04:03:40.255Z,5.65
2022-12-28T04:06:07.511Z,5.55
2022-12-28T04:08:34.623Z,5.10
2022-12-28T04:11:01.880Z,4.80
2022-12-28T04:13:30.823Z,5.07
2022-12-28T04:16:09.424Z,6.30
2022-12-28T04:18:36.317Z,5.95
2022-12-28T04:21:03.536Z,7.47
2022-12-28T04:23:32.057Z,6.40
2022-12-28T04:26:04.996Z,7.15
2022-12-28T04:28:32.556Z,6.45
2022-12-28T04:31:00.255Z,7.72
2022-12-28T04:33:27.206Z,8.82
2022-12-28T04:35:54.062Z,8.32
2022-12-28T04:38:21.695Z,9.20
2022-12-28T04:40:48.408Z,9.32
2022-12-28T04:43:15.189Z,10.07
2022-12-28T04:45:41.895Z,10.15
2022-12-28T04:48:08.630Z,10.70
2022-12-28T04:50:36.557Z,10.57
2022-12-28T04:53:03.347Z,11.15
2022-12-28T04:55:32.526Z,10.70
2022-12-28T04:58:00.601Z,9.90
2022-12-28T05:00:27.458Z,9.82
2022-12-28T05:02:54.320Z,11.05
2022-12-28T05:05:21.125Z,10.85
2022-12-28T05:07:47.879Z,11.75
2022-12-28T05:10:14.660Z,10.85
2022-12-28T05:12:41.530Z,10.30
2022-12-28T05:15:09.091Z,10.88
2022-12-28T05:17:35.954Z,10.57
2022-12-28T05:20:03.332Z,10.77
2022-12-28T05:22:34.030Z,10.45
2022-12-28T05:25:04.755Z,10.82
2022-12-28T05:27:32.051Z,10.45
2022-12-28T05:29:58.764Z,11.13
2022-12-28T05:32:25.547Z,12.43
2022-12-28T05:34:52.302Z,11.73
2022-12-28T05:37:22.122Z,11.02
2022-12-28T05:39:49.191Z,10.75
2022-12-28T05:42:15.942Z,10.57
2022-12-28T05:44:42.801Z,10.70
2022-12-28T05:47:09.584Z,9.90
2022-12-28T05:49:36.357Z,10.05
2022-12-28T05:52:03.092Z,10.30
2022-12-28T05:54:29.840Z,10.25
2022-12-28T05:56:56.618Z,10.40
2022-12-28T05:59:23.354Z,10.43
2022-12-28T06:01:50.263Z,9.95
2022-12-28T06:04:19.525Z,10.85
2022-12-28T06:06:47.554Z,10.48
2022-12-28T06:09:14.474Z,9.82
2022-12-28T06:11:41.311Z,8.75
2022-12-28T06:14:08.680Z,10.68
2022-12-28T06:16:38.248Z,9.57
2022-12-28T06:19:10.831Z,9.77
2022-12-28T06:21:39.654Z,10.13
2022-12-28T06:24:08.114Z,9.27
2022-12-28T06:26:36.500Z,9.38
2022-12-28T06:29:04.196Z,8.98
2022-12-28T06:31:33.791Z,8.93
2022-12-28T06:34:02.055Z,9.55
2022-12-28T06:36:31.845Z,9.23
2022-12-28T06:39:00.193Z,9.32
2022-12-28T06:41:28.121Z,9.02
2022-12-28T06:43:55.493Z,9.63
2022-12-28T06:46:24.332Z,8.93
2022-12-28T06:48:51.160Z,9.02
2022-12-28T06:51:20.994Z,9.38
2022-12-28T06:53:49.388Z,8.77
2022-12-28T06:56:22.092Z,8.27
2022-12-28T06:58:50.703Z,8.77
2022-12-28T07:01:25.725Z,8.40
2022-12-28T07:03:55.639Z,8.30
2022-12-28T07:06:25.472Z,8.63
2022-12-28T07:09:00.482Z,8.32
2022-12-28T07:11:28.901Z,8.60
2022-12-28T07:13:56.371Z,8.50
2022-12-28T07:16:25.004Z,7.97
2022-12-28T07:18:51.977Z,8.15
2022-12-28T07:21:39.642Z,8.55
2022-12-28T07:24:07.543Z,8.15
2022-12-28T07:26:36.030Z,8.00
2022-12-28T07:29:05.694Z,8.27
2022-12-28T07:31:41.622Z,8.05
2022-12-28T07:34:10.787Z,7.68
2022-12-28T07:36:37.520Z,7.35
2022-12-28T07:39:04.987Z,7.90
2022-12-28T07:41:34.001Z,7.53
2022-12-28T07:44:01.844Z,8.02
2022-12-28T07:46:32.483Z,8.10
2022-12-28T07:49:00.563Z,6.95
2022-12-28T07:51:35.713Z,7.32
2022-12-28T07:54:03.188Z,6.93
2022-12-28T07:59:00.720Z,7.03
2022-12-28T08:01:30.314Z,7.10
2022-12-28T08:04:03.047Z,6.65
2022-12-28T08:06:33.043Z,6.35
2022-12-28T08:09:00.690Z,7.60
2022-12-28T08:11:30.299Z,6.30
2022-12-28T08:13:57.993Z,6.40
2022-12-28T08:16:26.931Z,6.55
2022-12-28T08:18:54.509Z,6.35
2022-12-28T08:21:29.059Z,6.57
2022-12-28T08:23:56.901Z,6.80
2022-12-28T08:26:29.464Z,5.95
2022-12-28T08:29:00.243Z,5.75
2022-12-28T08:31:33.775Z,6.47
2022-12-28T08:34:02.389Z,5.78
2022-12-28T08:36:29.714Z,6.20
2022-12-28T08:38:57.491Z,6.03
2022-12-28T08:41:25.773Z,5.75
2022-12-28T08:43:54.089Z,5.45
2022-12-28T08:46:32.885Z,5.82
2022-12-28T08:49:00.772Z,5.10
2022-12-28T08:51:32.675Z,4.75
2022-12-28T08:54:00.153Z,5.47
2022-12-28T08:56:30.125Z,5.18
2022-12-28T08:58:57.872Z,5.03
2022-12-28T09:01:30.365Z,4.68
2022-12-28T09:03:59.541Z,5.38
2022-12-28T09:06:34.776Z,4.93
2022-12-28T09:09:05.988Z,4.50
2022-12-28T09:11:37.816Z,4.30
2022-12-28T09:14:06.595Z,4.60
2022-12-28T09:16:33.711Z,4.13
2022-12-28T09:19:02.720Z,4.43
2022-12-28T09:21:32.086Z,4.32
2022-12-28T09:23:59.123Z,4.97
2022-12-28T09:26:31.840Z,4.40
2022-12-28T09:29:00.337Z,4.32
2022-12-28T09:31:29.645Z,4.22
2022-12-28T09:36:47.382Z,4.53
2022-12-28T09:39:17.663Z,4.40
2022-12-28T09:42:08.878Z,3.70
2022-12-28T09:45:00.428Z,3.92
2022-12-28T09:47:41.032Z,4.38
2022-12-28T09:50:25.024Z,3.50
2022-12-28T09:53:29.387Z,4.05
2022-12-28T09:56:23.297Z,3.60
2022-12-28T09:58:51.550Z,3.50
2022-12-28T10:01:19.131Z,3.25
2022-12-28T10:03:47.186Z,3.10
2022-12-28T10:06:27.464Z,2.67
2022-12-28T10:09:00.204Z,3.17
2022-12-28T10:11:32.278Z,2.70
2022-12-28T10:14:03.459Z,2.78
2022-12-28T10:16:32.868Z,3.15
2022-12-28T10:19:00.442Z,3.20
2022-12-28T10:21:32.907Z,3.08
2022-12-28T10:26:48.180Z,2.47
2022-12-28T10:29:22.429Z,2.15
2022-12-28T10:32:04.277Z,2.75
2022-12-28T10:34:34.057Z,3.55
2022-12-28T10:37:14.029Z,2.92
2022-12-28T10:39:52.664Z,2.28
2022-12-28T10:42:23.707Z,2.08
2022-12-28T10:44:50.955Z,1.88
2022-12-28T10:47:29.211Z,1.75
2022-12-28T10:50:26.894Z,1.90
2022-12-28T10:52:43.653Z,1.70
2022-12-28T10:55:31.192Z,2.00
2022-12-28T10:58:31.869Z,1.40
2022-12-28T11:01:24.780Z,1.60
2022-12-28T11:04:22.144Z,1.85
2022-12-28T11:06:53.292Z,1.63
2022-12-28T11:09:28.863Z,1.50
2022-12-28T11:12:16.073Z,1.70
2022-12-28T11:14:43.156Z,1.63
2022-12-28T11:17:26.523Z,1.80
2022-12-28T11:19:56.997Z,1.85
2022-12-28T11:22:27.251Z,1.65
2022-12-28T11:24:54.940Z,1.67
2022-12-28T11:27:23.458Z,1.67
2022-12-28T11:29:52.697Z,1.83
2022-12-28T11:32:25.459Z,1.80
2022-12-28T11:34:54.640Z,1.90
2022-12-28T11:37:21.550Z,2.17
2022-12-28T11:39:50.235Z,2.10
2022-12-28T11:42:40.703Z,1.92
2022-12-28T11:45:16.530Z,1.80
2022-12-28T11:47:43.468Z,1.90
2022-12-28T11:50:36.585Z,1.83
2022-12-28T11:53:18.744Z,1.65
2022-12-28T11:55:54.573Z,1.60
2022-12-28T11:58:30.256Z,1.70
2022-12-28T12:00:59.946Z,2.13
2022-12-28T12:03:58.097Z,1.80
2022-12-28T12:06:43.205Z,1.70
2022-12-28T12:09:22.366Z,1.85
2022-12-28T12:11:53.760Z,1.90
2022-12-28T12:14:41.084Z,1.50
2022-12-28T12:17:25.682Z,1.58
2022-12-28T12:19:57.201Z,1.92
2022-12-28T12:22:25.805Z,1.90
2022-12-28T12:25:02.488Z,1.63
2022-12-28T12:27:39.909Z,1.63
2022-12-28T12:30:15.228Z,1.73
2022-12-28T12:32:56.614Z,1.58
2022-12-28T12:35:28.650Z,1.70
2022-12-28T12:38:34.260Z,1.40
2022-12-28T12:41:06.806Z,1.50
2022-12-28T12:43:50.291Z,1.58
2022-12-28T12:46:19.763Z,1.55
2022-12-28T12:49:15.028Z,1.73
2022-12-28T12:51:54.832Z,1.63
2022-12-28T12:54:39.888Z,2.00
2022-12-28T12:57:06.584Z,1.70
2022-12-28T12:59:36.045Z,2.00
2022-12-28T13:02:11.605Z,1.90
2022-12-28T13:04:41.675Z,2.00
2022-12-28T13:07:19.771Z,1.90
2022-12-28T13:09:47.621Z,2.05
2022-12-28T13:12:16.874Z,2.05
2022-12-28T13:14:46.337Z,1.50
2022-12-28T13:17:18.786Z,1.50
2022-12-28T13:19:46.245Z,1.60
2022-12-28T13:22:32.540Z,2.00
2022-12-28T13:24:59.585Z,1.85
2022-12-28T13:27:35.907Z,1.98
2022-12-28T13:30:03.995Z,1.58
2022-12-28T13:32:38.301Z,1.80
2022-12-28T13:35:20.031Z,1.67
2022-12-28T13:38:19.295Z,1.80
2022-12-28T13:40:52.270Z,1.80
2022-12-28T13:43:52.757Z,1.95
2022-12-28T13:46:21.345Z,1.63
2022-12-28T13:48:53.809Z,1.50
2022-12-28T13:51:21.830Z,1.80
2022-12-28T13:53:53.634Z,1.80
2022-12-28T13:56:22.282Z,1.83
2022-12-28T13:58:55.683Z,1.85
2022-12-28T14:04:42.544Z,2.30
2022-12-28T14:06:53.052Z,2.03
2022-12-28T14:09:21.095Z,2.00
2022-12-28T14:11:49.356Z,2.08
2022-12-28T14:14:17.048Z,2.08
2022-12-28T14:16:44.562Z,2.17
2022-12-28T14:19:11.852Z,2.25
2022-12-28T14:21:44.975Z,2.58
2022-12-28T14:24:15.850Z,2.47
2022-12-28T14:26:54.617Z,2.30
2022-12-28T14:29:32.414Z,2.20
2022-12-28T14:32:04.641Z,2.03
2022-12-28T14:34:35.061Z,2.30
2022-12-28T14:37:02.026Z,2.72
2022-12-28T14:39:31.148Z,2.45
2022-12-28T14:41:59.376Z,3.17
2022-12-28T14:44:30.732Z,2.72
2022-12-28T14:46:58.188Z,2.60
2022-12-28T14:49:31.073Z,2.60
2022-12-28T14:52:18.102Z,2.53
2022-12-28T14:54:49.838Z,2.47
2022-12-28T14:57:42.827Z,2.60
2022-12-28T15:00:30.903Z,2.80
2022-12-28T15:03:12.549Z,2.67
2022-12-28T15:05:46.290Z,3.10
2022-12-28T15:08:13.233Z,3.75
2022-12-28T15:10:53.139Z,2.88
2022-12-28T15:13:20.545Z,2.70
2022-12-28T15:16:00.936Z,2.90
2022-12-28T15:18:30.578Z,3.85
2022-12-28T15:20:57.945Z,3.10
2022-12-28T15:23:24.719Z,3.30
2022-12-28T15:25:51.551Z,2.60
2022-12-28T15:28:18.374Z,2.97
2022-12-28T15:30:45.320Z,3.22
2022-12-28T15:33:12.796Z,2.88
2022-12-28T15:35:39.576Z,2.70
2022-12-28T15:38:06.329Z,2.60
2022-12-28T15:40:34.208Z,3.17
2022-12-28T15:43:01.373Z,2.80
2022-12-28T15:45:32.348Z,2.80
2022-12-28T15:47:59.163Z,2.95
2022-12-28T15:50:25.932Z,3.60
2022-12-28T15:52:52.692Z,3.22
2022-12-28T15:55:19.580Z,3.63
2022-12-28T15:57:46.315Z,3.33
2022-12-28T16:00:18.888Z,3.85
2022-12-28T16:02:46.547Z,3.55
2022-12-28T16:05:13.734Z,3.85
2022-12-28T16:07:40.588Z,4.07
2022-12-28T16:10:08.071Z,3.75
2022-12-28T16:12:35.176Z,4.00
2022-12-28T16:15:01.962Z,4.05
2022-12-28T16:17:30.274Z,4.15
2022-12-28T16:19:57.039Z,4.10
2022-12-28T16:22:24.333Z,4.32
2022-12-28T16:24:51.060Z,3.60
2022-12-28T16:27:18.158Z,4.30
2022-12-28T16:29:46.255Z,4.93
2022-12-28T16:32:13.058Z,4.43
2022-12-28T16:34:39.987Z,3.90
2022-12-28T16:37:07.002Z,3.60
2022-12-28T16:39:33.929Z,3.75
2022-12-28T16:42:00.688Z,3.50
2022-12-28T16:44:29.263Z,3.67
2022-12-28T16:46:58.487Z,3.83
2022-12-28T16:49:26.972Z,4.32
2022-12-28T16:51:53.932Z,4.05
2022-12-28T16:54:22.815Z,4.38
2022-12-28T16:56:51.428Z,4.60
2022-12-28T16:59:26.553Z,4.00
2022-12-28T17:01:54.649Z,3.92
2022-12-28T17:04:22.225Z,4.18
2022-12-28T17:06:51.599Z,4.45
2022-12-28T17:09:19.368Z,4.90
2022-12-28T17:11:48.151Z,5.20
2022-12-28T17:14:17.515Z,4.72
2022-12-28T17:16:51.407Z,5.32
2022-12-28T17:19:18.156Z,5.55
2022-12-28T17:21:44.991Z,4.90
2022-12-28T17:24:11.812Z,5.85
2022-12-28T17:26:38.691Z,5.50
2022-12-28T17:29:05.388Z,5.53
2022-12-28T17:31:32.552Z,5.47
2022-12-28T17:34:00.271Z,4.32
2022-12-28T17:36:27.475Z,4.35
2022-12-28T17:38:54.345Z,4.40
2022-12-28T17:41:27.354Z,5.07
2022-12-28T17:43:57.087Z,4.13
2022-12-28T17:46:26.201Z,3.45
2022-12-28T17:48:55.044Z,5.68
2022-12-28T17:51:23.773Z,6.28
2022-12-28T17:53:50.813Z,5.70
2022-12-28T17:56:17.657Z,4.88
2022-12-28T17:58:45.371Z,11.93
2022-12-28T18:01:13.366Z,5.68
2022-12-28T18:03:40.566Z,4.10
2022-12-28T18:06:07.767Z,5.22
2022-12-28T18:08:34.543Z,7.05
2022-12-28T18:11:01.768Z,7.55
2022-12-28T18:13:28.783Z,8.57
2022-12-28T18:15:56.490Z,6.65
2022-12-28T18:18:23.357Z,4.85
2022-12-28T18:21:01.578Z,7.05
2022-12-28T18:23:29.407Z,4.30
2022-12-28T18:26:07.128Z,4.20
2022-12-28T18:28:34.979Z,3.85
2022-12-28T18:31:02.937Z,3.65
2022-12-28T18:33:30.999Z,4.00
2022-12-28T18:35:59.352Z,3.88
2022-12-28T18:38:26.101Z,4.15
2022-12-28T18:40:54.916Z,4.57
2022-12-28T18:43:22.032Z,4.53
2022-12-28T18:46:09.453Z,4.15
2022-12-28T18:48:38.840Z,4.38
2022-12-28T18:51:11.042Z,3.55
2022-12-28T18:53:38.595Z,4.63
2022-12-28T18:56:06.985Z,4.10
2022-12-28T18:58:37.568Z,4.28
2022-12-28T19:01:20.486Z,4.88
2022-12-28T19:03:59.060Z,4.57
2022-12-28T19:06:26.220Z,4.43
2022-12-28T19:08:53.062Z,3.88
2022-12-28T19:11:19.830Z,3.22
2022-12-28T19:13:46.652Z,3.40
2022-12-28T19:16:16.826Z,3.72
2022-12-28T19:18:43.843Z,3.70
2022-12-28T19:21:34.255Z,3.40
2022-12-28T19:24:06.833Z,3.45
2022-12-28T19:26:34.955Z,3.53
2022-12-28T19:29:03.417Z,3.47
2022-12-28T19:31:31.153Z,3.20
2022-12-28T19:33:58.207Z,3.95
2022-12-28T19:36:25.362Z,3.88
2022-12-28T19:38:56.067Z,3.58
2022-12-28T19:41:23.677Z,3.90
2022-12-28T19:43:51.059Z,4.13
2022-12-28T19:46:20.819Z,3.33
2022-12-28T19:48:47.848Z,3.30
2022-12-28T19:51:14.697Z,3.80
2022-12-28T19:53:41.901Z,3.80
2022-12-28T19:56:12.361Z,3.80
2022-12-28T19:58:39.867Z,3.75
2022-12-28T20:01:12.173Z,4.13
2022-12-28T20:03:39.819Z,3.50
2022-12-28T20:06:11.150Z,3.47
2022-12-28T20:08:38.632Z,3.88
2022-12-28T20:11:06.330Z,3.45
2022-12-28T20:13:33.801Z,3.65
2022-12-28T20:16:00.664Z,3.20
2022-12-28T20:18:27.467Z,3.60
2022-12-28T20:21:21.193Z,3.83
2022-12-28T20:23:54.015Z,3.75
2022-12-28T20:26:22.336Z,4.03
2022-12-28T20:28:50.277Z,3.60
2022-12-28T20:31:17.347Z,3.20
2022-12-28T20:33:44.350Z,2.88
2022-12-28T20:36:16.912Z,3.38
2022-12-28T20:38:43.943Z,3.50
2022-12-28T20:41:36.777Z,3.20
2022-12-28T20:44:10.248Z,3.10
2022-12-28T20:49:05.130Z,2.63
2022-12-28T20:51:31.869Z,2.55
2022-12-28T20:53:58.579Z,2.90
2022-12-28T20:56:25.378Z,2.60
2022-12-28T20:58:52.151Z,2.65
2022-12-28T21:01:19.407Z,2.80
2022-12-28T21:03:46.684Z,2.65
2022-12-28T21:06:13.549Z,2.30
2022-12-28T21:08:40.507Z,2.45
2022-12-28T21:11:07.507Z,2.88
2022-12-28T21:13:36.011Z,2.60
2022-12-28T21:16:06.819Z,2.67
2022-12-28T21:18:33.959Z,2.90
2022-12-28T21:21:01.234Z,4.05
2022-12-28T21:23:32.643Z,3.40
2022-12-28T21:26:07.821Z,2.80
2022-12-28T21:28:35.032Z,2.88
2022-12-28T21:31:04.754Z,3.10
2022-12-28T21:33:32.519Z,2.70
2022-12-28T21:36:06.883Z,2.60
2022-12-28T21:38:37.201Z,3.00
2022-12-28T21:41:06.952Z,2.30
2022-12-28T21:43:33.992Z,2.50
2022-12-28T21:46:03.589Z,2.65
2022-12-28T21:48:32.559Z,2.60
2022-12-28T21:51:31.105Z,2.40
2022-12-28T21:53:59.774Z,2.35
2022-12-28T21:56:26.974Z,2.20
2022-12-28T21:58:53.910Z,2.38
2022-12-28T22:01:39.448Z,2.10
2022-12-28T22:04:25.161Z,2.53
2022-12-28T22:06:51.904Z,2.67
2022-12-28T22:09:37.040Z,2.50
2022-12-28T22:12:22.554Z,2.13
2022-12-28T22:14:49.321Z,2.90
2022-12-28T22:17:16.582Z,2.40
2022-12-28T22:19:43.315Z,2.45
2022-12-28T22:22:10.090Z,2.67
2022-12-28T22:24:36.926Z,2.70
2022-12-28T22:27:03.732Z,2.38
2022-12-28T22:29:30.453Z,2.90
2022-12-28T22:31:57.253Z,2.60
2022-12-28T22:34:23.994Z,2.45
2022-12-28T22:36:50.754Z,2.67
2022-12-28T22:39:17.530Z,2.28
2022-12-28T22:41:44.282Z,2.33
2022-12-28T22:44:11.061Z,2.38
2022-12-28T22:46:37.896Z,2.38
2022-12-28T22:49:04.699Z,2.55
2022-12-28T22:51:31.465Z,2.65
2022-12-28T22:53:58.209Z,2.70
2022-12-28T22:56:25.049Z,3.40
2022-12-28T22:58:51.789Z,3.05
2022-12-28T23:01:19.805Z,3.25
2022-12-28T23:03:48.478Z,2.97
2022-12-28T23:06:18.514Z,2.90
2022-12-28T23:08:45.879Z,2.92
2022-12-28T23:11:34.138Z,2.92
2022-12-28T23:14:20.180Z,3.25
2022-12-28T23:16:47.967Z,2.67
2022-12-28T23:19:33.817Z,2.80
2022-12-28T23:22:20.415Z,2.83
2022-12-28T23:25:13.136Z,2.88
2022-12-28T23:27:43.241Z,2.42
2022-12-28T23:30:17.539Z,3.00
2022-12-28T23:32:48.956Z,2.90
2022-12-28T23:35:17.868Z,2.58
2022-12-28T23:37:45.375Z,2.58
2022-12-28T23:40:14.071Z,2.55
2022-12-28T23:42:41.746Z,2.70
2022-12-28T23:45:10.877Z,2.50
2022-12-28T23:47:38.071Z,2.75
2022-12-28T23:50:06.089Z,2.60
2022-12-28T23:52:32.933Z,2.38
2022-12-28T23:54:59.743Z,2.58
2022-12-28T23:57:26.645Z,2.40
2022-12-28T23:59:53.431Z,2.17
